Time;durP1;ratioP1;P1;durP2;ratioP2;P2;SDS_P1;SDS_P2;PMS_P1;PMS_P2;Temp;Humidity;BMP_temperature;BMP_pressure;BME280_temperature;BME280_humidity;BME280_pressure;Samples;Min_cycle;Max_cycle;Signal;HPM_P1;HPM_P2
2023/12/23 00:01:17;;;;;;;526.97;488.65;;;4.90;99.90;;;;;;6302588;22;20049;-80
2023/12/23 00:03:43;;;;;;;596.00;551.35;;;4.90;99.90;;;;;;6304053;22;20081;-81
2023/12/23 00:06:10;;;;;;;538.70;500.73;;;4.80;99.90;;;;;;6302356;22;20090;-81
2023/12/23 00:08:36;;;;;;;539.90;501.65;;;4.80;99.90;;;;;;6277530;22;20021;-81
2023/12/23 00:11:01;;;;;;;522.20;485.75;;;4.80;99.90;;;;;;6304214;22;20015;-81
2023/12/23 00:13:27;;;;;;;495.50;460.38;;;4.70;99.90;;;;;;6303404;22;20019;-81
2023/12/23 00:15:53;;;;;;;504.25;469.58;;;4.70;99.90;;;;;;6331858;22;20014;-81
2023/12/23 00:18:19;;;;;;;427.65;398.85;;;4.70;99.90;;;;;;6303087;22;20018;-81
2023/12/23 00:20:44;;;;;;;398.95;373.20;;;5.00;99.90;;;;;;6302907;22;20015;-81
2023/12/23 00:23:12;;;;;;;353.10;330.38;;;4.70;99.90;;;;;;6331137;22;20011;-81
2023/12/23 00:25:38;;;;;;;419.73;391.30;;;5.00;99.90;;;;;;6303553;22;20015;-81
2023/12/23 00:28:05;;;;;;;413.08;385.58;;;4.70;99.90;;;;;;6304432;22;20023;-80
2023/12/23 00:30:30;;;;;;;437.27;408.90;;;4.70;99.90;;;;;;6301950;22;20014;-80
2023/12/23 00:32:56;;;;;;;426.85;397.65;;;4.70;99.90;;;;;;6304403;22;20018;-81
2023/12/23 00:35:22;;;;;;;431.10;402.02;;;4.70;99.90;;;;;;6302528;22;20500;-80
2023/12/23 00:37:48;;;;;;;477.25;444.35;;;4.80;99.90;;;;;;6277331;22;20048;-80
2023/12/23 00:40:13;;;;;;;552.70;512.13;;;4.80;99.90;;;;;;6303534;22;20102;-81
2023/12/23 00:42:39;;;;;;;615.55;570.38;;;4.80;99.90;;;;;;6331310;22;20022;-81
2023/12/23 00:45:06;;;;;;;576.95;535.17;;;4.80;99.90;;;;;;6303098;22;20018;-81
2023/12/23 00:47:32;;;;;;;539.75;500.40;;;4.70;99.90;;;;;;6302979;22;20042;-81
2023/12/23 00:49:58;;;;;;;582.05;538.65;;;4.70;99.90;;;;;;6303289;22;20023;-81
2023/12/23 00:52:23;;;;;;;594.22;551.35;;;4.80;99.90;;;;;;6330944;22;20011;-81
2023/12/23 00:54:49;;;;;;;615.88;569.65;;;4.70;99.90;;;;;;6302826;22;20015;-81
2023/12/23 00:57:15;;;;;;;632.60;585.03;;;4.70;99.90;;;;;;6278091;22;20119;-81
2023/12/23 00:59:41;;;;;;;613.47;568.30;;;4.70;99.90;;;;;;6302392;22;20007;-81
2023/12/23 01:02:06;;;;;;;610.10;565.22;;;4.70;99.90;;;;;;6298758;22;20023;-81
2023/12/23 01:04:32;;;;;;;663.17;613.38;;;4.60;99.90;;;;;;6298794;22;20019;-81
2023/12/23 01:06:58;;;;;;;631.75;583.75;;;4.70;99.90;;;;;;6271263;22;20096;-81
2023/12/23 01:09:24;;;;;;;756.50;691.47;;;4.60;99.90;;;;;;6298348;22;20015;-81
2023/12/23 01:11:50;;;;;;;863.10;786.85;;;4.70;99.90;;;;;;6297051;22;20015;-80
2023/12/23 01:14:16;;;;;;;723.60;666.03;;;4.70;99.90;;;;;;6299900;22;20123;-81
2023/12/23 01:16:42;;;;;;;712.20;655.58;;;4.80;99.90;;;;;;6298449;22;20385;-81
2023/12/23 01:19:08;;;;;;;611.03;565.65;;;4.90;99.90;;;;;;6297140;22;20069;-81
2023/12/23 01:21:33;;;;;;;659.78;610.05;;;5.00;99.90;;;;;;6298880;22;20019;-81
2023/12/23 01:23:59;;;;;;;707.83;653.58;;;5.00;99.90;;;;;;6298719;22;20038;-81
2023/12/23 01:26:25;;;;;;;708.90;654.10;;;5.00;99.90;;;;;;6299056;22;20016;-81
2023/12/23 01:28:50;;;;;;;731.67;673.97;;;5.10;99.90;;;;;;6299685;22;20633;-81
2023/12/23 01:31:18;;;;;;;659.28;608.63;;;5.00;99.90;;;;;;6299902;22;20029;-82
2023/12/23 01:33:44;;;;;;;815.45;742.33;;;5.00;99.90;;;;;;6299567;22;20026;-81
2023/12/23 01:36:09;;;;;;;726.75;670.65;;;5.10;99.90;;;;;;6298830;22;20015;-81
2023/12/23 01:38:35;;;;;;;694.78;641.45;;;5.10;99.90;;;;;;6300136;22;20015;-81
2023/12/23 01:41:01;;;;;;;704.33;647.67;;;5.10;99.90;;;;;;6299705;22;20043;-82
2023/12/23 01:43:28;;;;;;;691.50;638.67;;;5.10;99.90;;;;;;6299590;22;20015;-81
2023/12/23 01:45:59;;;;;;;718.40;660.65;;;5.10;99.90;;;;;;6300504;22;20031;-81
2023/12/23 01:48:25;;;;;;;623.25;577.40;;;5.10;99.90;;;;;;6298755;22;20019;-81
2023/12/23 01:50:53;;;;;;;713.60;658.75;;;5.10;99.90;;;;;;6301495;22;20115;-82
2023/12/23 01:53:19;;;;;;;612.08;565.00;;;5.10;99.90;;;;;;6299747;22;20140;-81
2023/12/23 01:55:45;;;;;;;654.20;604.35;;;5.20;99.90;;;;;;6299244;22;20435;-81
2023/12/23 01:58:11;;;;;;;588.33;545.47;;;5.40;99.90;;;;;;6302200;22;20019;-81
2023/12/23 02:00:37;;;;;;;675.30;622.65;;;5.50;99.90;;;;;;6304693;22;20110;-81
2023/12/23 02:03:03;;;;;;;723.47;665.40;;;5.30;99.90;;;;;;6304608;22;20084;-82
2023/12/23 02:05:28;;;;;;;586.15;543.90;;;5.30;99.90;;;;;;6331165;22;20050;-80
2023/12/23 02:07:54;;;;;;;598.20;553.63;;;5.30;99.90;;;;;;6333330;22;20098;-82
2023/12/23 02:10:20;;;;;;;671.70;617.88;;;5.30;99.90;;;;;;6304954;22;20015;-81
2023/12/23 02:12:56;;;;;;;583.92;538.55;;;5.30;99.90;;;;;;6305192;22;20023;-81
2023/12/23 02:15:23;;;;;;;578.20;533.35;;;5.40;99.90;;;;;;6277835;22;20352;-81
2023/12/23 02:17:59;;;;;;;480.63;446.92;;;5.40;99.90;;;;;;6305237;22;20015;-81
2023/12/23 02:20:25;;;;;;;409.13;381.50;;;5.50;99.90;;;;;;6331630;22;20015;-81
2023/12/23 02:22:51;;;;;;;408.70;381.25;;;5.50;99.90;;;;;;6304506;22;20045;-81
2023/12/23 02:25:19;;;;;;;414.80;386.55;;;5.50;99.90;;;;;;6332280;22;20565;-81
2023/12/23 02:27:50;;;;;;;508.00;472.58;;;5.50;99.90;;;;;;6305321;22;20368;-81
2023/12/23 02:30:16;;;;;;;540.03;501.95;;;5.50;99.90;;;;;;6303761;22;20007;-81
2023/12/23 02:32:44;;;;;;;439.38;409.35;;;5.50;99.90;;;;;;6305132;22;20018;-80
2023/12/23 02:35:11;;;;;;;420.48;392.85;;;5.50;99.90;;;;;;6303993;22;20014;-80
2023/12/23 02:37:36;;;;;;;532.67;495.13;;;5.50;99.90;;;;;;6304934;22;20007;-81
2023/12/23 02:40:03;;;;;;;495.52;460.38;;;5.60;99.90;;;;;;6279443;22;20347;-80
2023/12/23 02:42:28;;;;;;;606.83;562.80;;;5.40;99.90;;;;;;6304386;22;20391;-81
2023/12/23 02:44:54;;;;;;;666.65;615.50;;;5.40;99.90;;;;;;6332673;22;20120;-81
2023/12/23 02:47:20;;;;;;;592.42;548.65;;;5.40;99.90;;;;;;6304769;22;20389;-81
2023/12/23 02:49:45;;;;;;;641.22;592.83;;;5.40;99.90;;;;;;6304625;22;20022;-80
2023/12/23 02:52:11;;;;;;;714.90;659.40;;;5.40;99.90;;;;;;6304264;22;20022;-81
2023/12/23 02:54:37;;;;;;;669.95;620.00;;;5.40;99.90;;;;;;6304848;22;20056;-82
2023/12/23 02:57:03;;;;;;;742.92;686.10;;;5.80;99.90;;;;;;6332575;22;20058;-81
2023/12/23 02:59:29;;;;;;;673.40;623.53;;;5.40;99.90;;;;;;6304490;22;20066;-81
2023/12/23 03:01:54;;;;;;;661.50;613.08;;;5.40;99.90;;;;;;6279692;22;20358;-81
2023/12/23 03:04:20;;;;;;;719.80;663.53;;;5.40;99.90;;;;;;6304160;22;20100;-81
2023/12/23 03:06:46;;;;;;;776.45;713.22;;;5.30;99.90;;;;;;6303476;22;20385;-81
2023/12/23 03:09:11;;;;;;;765.08;703.60;;;5.30;99.90;;;;;;6305484;22;20042;-81
2023/12/23 03:11:37;;;;;;;787.63;724.63;;;5.30;99.90;;;;;;6303333;22;20080;-82
2023/12/23 03:14:04;;;;;;;710.72;657.00;;;5.20;99.90;;;;;;6279722;22;20076;-81
2023/12/23 03:16:34;;;;;;;713.75;658.78;;;5.20;99.90;;;;;;6332142;22;20007;-81
2023/12/23 03:19:02;;;;;;;755.58;696.55;;;5.20;99.90;;;;;;6332705;22;20015;-80
2023/12/23 03:21:28;;;;;;;761.15;703.35;;;5.20;99.90;;;;;;6303335;22;20818;-81
2023/12/23 03:23:54;;;;;;;772.15;712.13;;;5.20;99.90;;;;;;6333182;22;20029;-81
2023/12/23 03:26:19;;;;;;;790.53;729.75;;;5.10;99.90;;;;;;6303697;22;20522;-81
2023/12/23 03:28:45;;;;;;;729.53;673.80;;;5.10;99.90;;;;;;6304836;22;20370;-81
2023/12/23 03:31:11;;;;;;;789.75;727.92;;;5.10;99.90;;;;;;6331845;22;20320;-80
2023/12/23 03:33:36;;;;;;;834.83;769.47;;;5.00;99.90;;;;;;6302996;22;20292;-80
2023/12/23 03:36:02;;;;;;;775.08;715.65;;;5.00;99.90;;;;;;6302811;22;20011;-81
2023/12/23 03:38:28;;;;;;;772.17;711.40;;;5.00;99.90;;;;;;6303746;22;20025;-81
2023/12/23 03:40:54;;;;;;;776.30;717.92;;;5.00;99.90;;;;;;6302110;22;20071;-81
2023/12/23 03:43:19;;;;;;;788.67;726.45;;;5.00;99.90;;;;;;6303509;22;20022;-81
2023/12/23 03:45:45;;;;;;;863.67;793.10;;;4.90;99.90;;;;;;6331477;22;20025;-80
2023/12/23 03:48:11;;;;;;;844.85;778.40;;;4.90;99.90;;;;;;6301730;22;20027;-80
2023/12/23 03:50:37;;;;;;;794.38;732.65;;;4.90;99.90;;;;;;6302333;22;20045;-80
2023/12/23 03:53:02;;;;;;;835.53;768.13;;;4.90;99.90;;;;;;6303773;22;20019;-80
2023/12/23 03:55:32;;;;;;;860.97;787.80;;;4.90;99.90;;;;;;6301703;22;20019;-80
2023/12/23 03:57:59;;;;;;;915.78;837.90;;;4.90;99.90;;;;;;6303601;22;20469;-80
2023/12/23 04:00:25;;;;;;;816.33;752.40;;;4.80;99.90;;;;;;6301772;22;20469;-80
2023/12/23 04:02:53;;;;;;;816.17;752.90;;;4.80;99.90;;;;;;6304210;22;20051;-80
2023/12/23 04:05:18;;;;;;;821.28;754.75;;;4.90;99.90;;;;;;6302175;22;20415;-80
2023/12/23 04:07:47;;;;;;;835.63;769.50;;;4.80;99.90;;;;;;6331455;22;20035;-80
2023/12/23 04:10:13;;;;;;;853.03;786.28;;;4.80;99.90;;;;;;6331377;22;20088;-79
2023/12/23 04:12:40;;;;;;;907.90;830.17;;;4.80;99.90;;;;;;6304372;22;20014;-79
2023/12/23 04:15:06;;;;;;;874.47;803.20;;;4.80;99.90;;;;;;6331310;22;20018;-80
2023/12/23 04:17:32;;;;;;;821.58;757.72;;;4.80;99.90;;;;;;6303713;22;20101;-80
2023/12/23 04:19:57;;;;;;;821.42;757.25;;;4.90;99.90;;;;;;6331065;22;20019;-80
2023/12/23 04:22:23;;;;;;;812.05;748.60;;;4.80;99.90;;;;;;6302866;22;20022;-80
2023/12/23 04:24:49;;;;;;;860.35;790.78;;;4.90;99.90;;;;;;6278365;22;20044;-80
2023/12/23 04:27:15;;;;;;;833.13;767.85;;;4.80;99.90;;;;;;6303483;22;20019;-79
2023/12/23 04:29:41;;;;;;;822.50;757.13;;;4.80;99.90;;;;;;6303429;22;20027;-80
2023/12/23 04:32:06;;;;;;;851.03;783.55;;;4.80;99.90;;;;;;6332218;22;20026;-80
2023/12/23 04:34:32;;;;;;;823.95;759.00;;;4.80;99.90;;;;;;6303093;22;20458;-80
2023/12/23 04:36:58;;;;;;;814.60;751.30;;;4.80;99.90;;;;;;6330584;22;20079;-80
2023/12/23 04:39:23;;;;;;;837.15;771.42;;;4.80;99.90;;;;;;6303371;22;20447;-80
2023/12/23 04:41:50;;;;;;;801.70;739.92;;;4.80;99.90;;;;;;6278472;22;20034;-79
2023/12/23 04:44:16;;;;;;;810.65;749.88;;;5.10;99.90;;;;;;6302714;22;20047;-79
2023/12/23 04:46:45;;;;;;;780.85;721.55;;;4.70;99.90;;;;;;6302907;22;20046;-80
2023/12/23 04:49:11;;;;;;;753.13;696.17;;;4.70;99.90;;;;;;6303983;22;20023;-80
2023/12/23 04:51:36;;;;;;;814.30;751.30;;;4.70;99.90;;;;;;6301056;22;20446;-79
2023/12/23 04:54:02;;;;;;;809.92;747.90;;;4.70;99.90;;;;;;6332230;22;20007;-79
2023/12/23 04:56:28;;;;;;;782.33;722.70;;;4.70;99.90;;;;;;6303260;22;20114;-80
2023/12/23 04:58:56;;;;;;;805.92;742.58;;;4.70;99.90;;;;;;6303036;22;20447;-80
2023/12/23 05:01:24;;;;;;;831.50;767.17;;;4.70;99.90;;;;;;6303122;22;20018;-80
2023/12/23 05:03:49;;;;;;;796.00;734.47;;;4.70;99.90;;;;;;6330002;22;20015;-80
2023/12/23 05:06:15;;;;;;;886.55;812.65;;;4.70;99.90;;;;;;6330617;22;20442;-80
2023/12/23 05:08:41;;;;;;;791.92;731.20;;;4.70;99.90;;;;;;6303229;22;20029;-80
2023/12/23 05:11:06;;;;;;;783.33;724.90;;;4.70;99.90;;;;;;6303121;22;20040;-80
2023/12/23 05:13:32;;;;;;;753.03;695.70;;;4.70;99.90;;;;;;6331494;22;20343;-80
2023/12/23 05:15:58;;;;;;;803.40;742.13;;;4.70;99.90;;;;;;6277233;22;20031;-80
2023/12/23 05:18:23;;;;;;;770.00;712.00;;;4.70;99.90;;;;;;6302694;22;20026;-80
2023/12/23 05:20:49;;;;;;;765.55;708.08;;;4.70;99.90;;;;;;6329812;22;20015;-80
2023/12/23 05:23:16;;;;;;;762.83;705.13;;;4.90;99.90;;;;;;6277903;22;20106;-80
2023/12/23 05:25:42;;;;;;;759.30;701.47;;;4.60;99.90;;;;;;6330510;22;20011;-80
2023/12/23 05:28:08;;;;;;;739.67;684.30;;;5.00;99.90;;;;;;6303198;22;20026;-80
2023/12/23 05:30:34;;;;;;;740.40;685.08;;;4.60;99.90;;;;;;6329840;22;20011;-80
2023/12/23 05:33:00;;;;;;;768.15;710.10;;;4.60;99.90;;;;;;6303003;22;20054;-80
2023/12/23 05:35:26;;;;;;;743.53;687.72;;;5.00;99.90;;;;;;6329567;22;20022;-80
2023/12/23 05:37:51;;;;;;;735.47;680.75;;;4.60;99.90;;;;;;6332183;22;20098;-80
2023/12/23 05:40:17;;;;;;;731.97;677.10;;;4.70;99.90;;;;;;6275704;22;20040;-80
2023/12/23 05:42:43;;;;;;;785.05;725.25;;;4.50;99.90;;;;;;6331411;22;20018;-80
2023/12/23 05:45:09;;;;;;;761.47;704.28;;;4.60;99.90;;;;;;6330879;22;20019;-79
2023/12/23 05:47:34;;;;;;;732.05;676.80;;;4.50;99.90;;;;;;6330793;22;20019;-80
2023/12/23 05:50:00;;;;;;;751.10;695.35;;;4.50;99.90;;;;;;6303386;22;20011;-80
2023/12/23 05:52:26;;;;;;;717.47;664.40;;;4.60;99.90;;;;;;6303068;22;20010;-80
2023/12/23 05:54:52;;;;;;;733.67;679.63;;;4.50;99.90;;;;;;6330596;22;20074;-80
2023/12/23 05:57:17;;;;;;;704.65;652.50;;;4.50;99.90;;;;;;6304141;22;20019;-80
2023/12/23 05:59:43;;;;;;;724.55;671.42;;;4.60;99.90;;;;;;6303520;22;20018;-80
2023/12/23 06:02:08;;;;;;;714.08;660.80;;;4.60;99.90;;;;;;6302864;22;20041;-79
2023/12/23 06:04:34;;;;;;;724.90;671.20;;;4.60;99.90;;;;;;6331663;22;20019;-80
2023/12/23 06:07:00;;;;;;;700.10;648.47;;;4.50;99.90;;;;;;6329633;22;20308;-80
2023/12/23 06:09:26;;;;;;;694.67;643.72;;;4.60;99.90;;;;;;6303103;22;20010;-80
2023/12/23 06:11:52;;;;;;;704.38;652.50;;;4.60;99.90;;;;;;6304005;22;20015;-80
2023/12/23 06:14:17;;;;;;;703.28;651.95;;;4.60;99.90;;;;;;6302449;22;20019;-79
2023/12/23 06:16:43;;;;;;;714.95;661.83;;;5.10;99.90;;;;;;6332108;22;20010;-80
2023/12/23 06:19:09;;;;;;;768.65;712.00;;;4.80;99.90;;;;;;6305682;22;20109;-79
2023/12/23 06:21:34;;;;;;;706.20;653.63;;;4.50;99.90;;;;;;6331675;22;20022;-80
2023/12/23 06:24:00;;;;;;;709.15;656.85;;;4.50;99.90;;;;;;6305942;22;20019;-80
2023/12/23 06:26:26;;;;;;;717.75;664.28;;;4.50;99.90;;;;;;6304929;22;20390;-80
2023/12/23 06:28:52;;;;;;;736.55;681.03;;;4.60;99.90;;;;;;6304585;22;20026;-80
2023/12/23 06:31:18;;;;;;;715.65;661.90;;;4.50;99.90;;;;;;6333605;22;20083;-79
2023/12/23 06:33:43;;;;;;;715.42;662.20;;;4.40;99.90;;;;;;6333152;22;20454;-79
2023/12/23 06:36:09;;;;;;;745.45;689.15;;;4.50;99.90;;;;;;6331018;22;20010;-80
2023/12/23 06:38:36;;;;;;;722.42;668.55;;;4.50;99.90;;;;;;6305128;22;20053;-79
2023/12/23 06:41:03;;;;;;;704.97;653.08;;;4.90;99.90;;;;;;6304745;22;20015;-80
2023/12/23 06:43:29;;;;;;;728.22;673.95;;;4.50;99.90;;;;;;6303692;22;20018;-79
2023/12/23 06:45:55;;;;;;;728.90;674.15;;;4.50;99.90;;;;;;6304647;22;20484;-80
2023/12/23 06:48:21;;;;;;;760.17;702.80;;;4.50;99.90;;;;;;6332753;22;20042;-80
2023/12/23 06:50:46;;;;;;;752.13;696.40;;;4.40;99.90;;;;;;6330780;22;20679;-80
2023/12/23 06:53:12;;;;;;;758.83;701.50;;;4.40;99.90;;;;;;6304438;22;20443;-80
2023/12/23 06:55:38;;;;;;;731.00;676.55;;;4.40;99.90;;;;;;6304724;22;20022;-80
2023/12/23 06:58:04;;;;;;;716.38;663.03;;;4.50;99.90;;;;;;6304126;22;20094;-80
2023/12/23 07:00:30;;;;;;;731.70;677.05;;;4.40;99.90;;;;;;6303865;22;20019;-80
2023/12/23 07:02:55;;;;;;;741.55;686.70;;;4.90;99.90;;;;;;6305224;22;20019;-80
2023/12/23 07:05:21;;;;;;;721.13;667.60;;;4.50;99.90;;;;;;6276135;22;20478;-80
2023/12/23 07:07:47;;;;;;;696.03;645.22;;;4.40;99.90;;;;;;6305026;22;20023;-80
2023/12/23 07:10:14;;;;;;;732.08;678.15;;;4.40;99.90;;;;;;6303241;22;20019;-80
2023/12/23 07:12:40;;;;;;;741.28;686.10;;;4.30;99.90;;;;;;6304815;22;20023;-80
2023/12/23 07:15:08;;;;;;;709.20;656.55;;;4.40;99.90;;;;;;6279226;22;20015;-80
2023/12/23 07:17:34;;;;;;;727.63;673.22;;;4.30;99.90;;;;;;6303229;22;20019;-80
2023/12/23 07:20:00;;;;;;;762.75;706.45;;;4.40;99.90;;;;;;6303740;22;20029;-80
2023/12/23 07:22:28;;;;;;;720.67;667.15;;;4.30;99.90;;;;;;6277877;22;20030;-80
2023/12/23 07:25:09;;;;;;;711.60;658.83;;;4.30;99.90;;;;;;6330608;22;20339;-80
2023/12/23 07:27:34;;;;;;;708.05;655.88;;;4.40;99.90;;;;;;6332361;22;20015;-79
2023/12/23 07:30:00;;;;;;;744.75;689.33;;;4.40;99.90;;;;;;6332662;22;20475;-80
2023/12/23 07:32:26;;;;;;;726.22;672.75;;;4.40;99.90;;;;;;6330892;22;20011;-80
2023/12/23 07:34:52;;;;;;;737.75;683.28;;;4.40;99.90;;;;;;6303444;22;20025;-80
2023/12/23 07:37:17;;;;;;;735.65;681.35;;;4.50;99.90;;;;;;6304021;22;20018;-80
2023/12/23 07:39:43;;;;;;;691.35;639.97;;;4.30;99.90;;;;;;6303418;22;20049;-80
2023/12/23 07:42:09;;;;;;;702.63;650.97;;;4.40;99.90;;;;;;6332254;22;20018;-79
2023/12/23 07:44:36;;;;;;;702.90;651.22;;;4.40;99.90;;;;;;6331941;22;20075;-80
2023/12/23 07:47:04;;;;;;;716.45;664.10;;;4.40;99.90;;;;;;6301798;22;20018;-80
2023/12/23 07:49:31;;;;;;;721.08;668.38;;;4.30;99.90;;;;;;6275938;22;20026;-81
2023/12/23 07:51:57;;;;;;;746.63;691.42;;;4.40;99.90;;;;;;6302562;22;20098;-80
2023/12/23 07:54:23;;;;;;;738.97;684.42;;;4.40;99.90;;;;;;6330865;22;20078;-81
2023/12/23 07:56:49;;;;;;;765.35;707.65;;;4.30;99.90;;;;;;6278140;22;20442;-81
2023/12/23 07:59:14;;;;;;;725.72;671.05;;;4.30;99.90;;;;;;6304004;22;20014;-80
2023/12/23 08:01:45;;;;;;;740.85;684.53;;;4.40;99.90;;;;;;6330020;22;20015;-80
2023/12/23 08:04:12;;;;;;;744.25;688.85;;;4.30;99.90;;;;;;6304020;22;20056;-80
2023/12/23 08:06:37;;;;;;;745.03;689.35;;;4.40;99.90;;;;;;6301104;22;20124;-81
2023/12/23 08:09:04;;;;;;;778.80;719.72;;;4.30;99.90;;;;;;6304559;22;20027;-80
2023/12/23 08:11:30;;;;;;;785.55;725.33;;;4.30;99.90;;;;;;6302985;22;20010;-81
2023/12/23 08:13:55;;;;;;;747.13;690.88;;;4.40;99.90;;;;;;6303449;22;20439;-82
2023/12/23 08:16:21;;;;;;;771.63;714.30;;;4.40;99.90;;;;;;6332040;22;20006;-81
2023/12/23 08:18:47;;;;;;;754.33;698.58;;;4.50;99.90;;;;;;6303487;22;20019;-81
2023/12/23 08:21:13;;;;;;;772.78;714.80;;;4.70;99.90;;;;;;6301785;22;20410;-81
2023/12/23 08:23:39;;;;;;;761.85;706.05;;;4.50;99.90;;;;;;6303451;22;20023;-82
2023/12/23 08:26:04;;;;;;;737.15;682.10;;;4.40;99.90;;;;;;6303925;22;20072;-81
2023/12/23 08:28:30;;;;;;;768.22;710.47;;;4.50;99.90;;;;;;6302561;22;20396;-81
2023/12/23 08:30:56;;;;;;;725.03;671.92;;;4.50;99.90;;;;;;6331869;22;20011;-81
2023/12/23 08:33:25;;;;;;;734.17;679.58;;;4.50;99.90;;;;;;6303463;22;20080;-85
2023/12/23 08:35:50;;;;;;;751.35;695.15;;;4.70;99.90;;;;;;6301143;22;20011;-81
2023/12/23 08:38:16;;;;;;;733.70;679.03;;;4.50;99.90;;;;;;6303142;22;20046;-81
2023/12/23 08:40:43;;;;;;;723.17;669.50;;;4.50;99.90;;;;;;6303207;22;20019;-81
2023/12/23 08:43:10;;;;;;;736.50;680.72;;;4.60;99.90;;;;;;6276818;22;20080;-81
2023/12/23 08:45:35;;;;;;;723.30;670.13;;;4.50;99.90;;;;;;6303762;22;20105;-81
2023/12/23 08:48:01;;;;;;;696.50;645.40;;;4.50;99.90;;;;;;6331517;22;20026;-81
2023/12/23 08:50:27;;;;;;;695.20;643.28;;;4.50;99.90;;;;;;6301279;22;20022;-81
2023/12/23 08:52:52;;;;;;;706.60;654.58;;;4.60;99.90;;;;;;6303939;22;20064;-79
2023/12/23 08:55:18;;;;;;;706.42;653.78;;;4.50;99.90;;;;;;6331261;22;20104;-81
2023/12/23 08:57:44;;;;;;;742.60;687.28;;;4.90;99.90;;;;;;6302740;22;20030;-80
2023/12/23 09:00:10;;;;;;;748.58;692.85;;;4.60;99.90;;;;;;6302376;22;20022;-81
2023/12/23 09:02:36;;;;;;;743.47;687.83;;;4.70;99.90;;;;;;6331300;22;20339;-81
2023/12/23 09:05:01;;;;;;;770.35;712.85;;;4.60;99.90;;;;;;6329720;22;20533;-81
2023/12/23 09:07:28;;;;;;;735.15;679.80;;;4.60;99.90;;;;;;6303424;22;20027;-81
2023/12/23 09:09:54;;;;;;;738.67;683.80;;;4.70;99.90;;;;;;6302991;22;20015;-81
2023/12/23 09:12:19;;;;;;;733.80;679.38;;;4.70;99.90;;;;;;6303486;22;20029;-81
2023/12/23 09:14:49;;;;;;;762.80;705.97;;;4.80;99.90;;;;;;6331946;22;20014;-80
2023/12/23 09:17:15;;;;;;;751.22;695.58;;;5.20;99.90;;;;;;6302759;22;20018;-81
2023/12/23 09:19:41;;;;;;;742.65;687.03;;;4.80;99.90;;;;;;6303718;22;20343;-81
2023/12/23 09:22:07;;;;;;;761.33;704.08;;;4.80;99.90;;;;;;6302989;22;20018;-82
2023/12/23 09:24:34;;;;;;;763.90;705.72;;;4.80;99.90;;;;;;6302263;22;20018;-83
2023/12/23 09:27:00;;;;;;;764.42;706.58;;;4.80;99.90;;;;;;6277302;22;20018;-81
2023/12/23 09:29:26;;;;;;;778.53;719.88;;;4.80;99.90;;;;;;6302531;22;20050;-80
2023/12/23 09:31:52;;;;;;;761.00;704.40;;;4.80;99.90;;;;;;6302985;22;20015;-79
2023/12/23 09:34:20;;;;;;;771.97;713.50;;;4.80;99.90;;;;;;6302744;22;20079;-80
2023/12/23 09:36:46;;;;;;;732.80;677.58;;;4.80;99.90;;;;;;6330436;22;20019;-80
2023/12/23 09:39:12;;;;;;;772.17;715.22;;;4.90;99.90;;;;;;6302827;22;20022;-81
2023/12/23 09:41:40;;;;;;;748.38;692.63;;;4.90;99.90;;;;;;6302643;22;20019;-80
2023/12/23 09:44:06;;;;;;;743.35;687.83;;;4.90;99.90;;;;;;6303779;22;20359;-80
2023/12/23 09:46:32;;;;;;;783.47;723.92;;;4.90;99.90;;;;;;6329037;22;20011;-81
2023/12/23 09:48:58;;;;;;;799.25;738.45;;;4.80;99.90;;;;;;6331578;22;20023;-80
2023/12/23 09:51:28;;;;;;;765.42;708.28;;;4.90;99.90;;;;;;6303864;22;20030;-81
2023/12/23 09:53:57;;;;;;;752.80;697.20;;;4.90;99.90;;;;;;6332834;22;20021;-81
2023/12/23 09:56:27;;;;;;;736.15;681.00;;;5.00;99.90;;;;;;6304316;22;20019;-80
2023/12/23 09:58:53;;;;;;;761.15;703.75;;;5.00;99.90;;;;;;6305112;22;20021;-81
2023/12/23 10:01:19;;;;;;;731.88;678.05;;;5.00;99.90;;;;;;6303470;22;20019;-82
2023/12/23 10:03:46;;;;;;;721.78;667.90;;;5.00;99.90;;;;;;6305143;22;20440;-82
2023/12/23 10:06:15;;;;;;;732.83;678.58;;;5.00;99.90;;;;;;6277142;22;20019;-82
2023/12/23 10:08:41;;;;;;;761.28;703.42;;;4.90;99.90;;;;;;6333307;22;20582;-82
2023/12/23 10:11:07;;;;;;;779.63;721.30;;;5.00;99.90;;;;;;6333348;22;20017;-83
2023/12/23 10:13:33;;;;;;;758.55;701.55;;;5.00;99.90;;;;;;6303600;22;20023;-83
2023/12/23 10:15:59;;;;;;;798.17;737.15;;;5.00;99.90;;;;;;6305286;22;20113;-82
2023/12/23 10:18:25;;;;;;;756.30;700.33;;;5.00;99.90;;;;;;6332693;22;20335;-82
2023/12/23 10:20:51;;;;;;;768.20;709.85;;;5.00;99.90;;;;;;6303494;22;20046;-82
2023/12/23 10:23:16;;;;;;;761.40;704.30;;;5.10;99.90;;;;;;6332973;22;20022;-82
2023/12/23 10:25:42;;;;;;;777.10;718.13;;;5.10;99.90;;;;;;6332153;22;20529;-82
2023/12/23 10:28:09;;;;;;;788.08;727.78;;;5.10;99.90;;;;;;6304232;22;20545;-83
2023/12/23 10:30:39;;;;;;;767.08;710.05;;;5.20;99.90;;;;;;6332324;22;20011;-84
2023/12/23 10:33:08;;;;;;;778.13;718.58;;;5.40;99.90;;;;;;6333589;22;20084;-85
2023/12/23 10:35:46;;;;;;;763.53;706.55;;;5.10;99.90;;;;;;6302167;22;20026;-82
2023/12/23 10:38:17;;;;;;;749.92;693.45;;;5.20;99.90;;;;;;6304894;22;20021;-83
2023/12/23 10:40:47;;;;;;;764.85;707.58;;;5.20;99.90;;;;;;6304741;22;20609;-84
2023/12/23 10:43:15;;;;;;;774.58;716.17;;;5.30;99.90;;;;;;6303650;22;20491;-81
2023/12/23 10:45:46;;;;;;;764.83;707.72;;;5.20;99.90;;;;;;6304204;22;20621;-81
2023/12/23 10:48:15;;;;;;;749.03;692.30;;;5.20;99.90;;;;;;6304011;22;20089;-81
2023/12/23 10:50:43;;;;;;;773.50;714.80;;;5.30;99.90;;;;;;6303875;22;20015;-81
2023/12/23 10:53:12;;;;;;;747.03;691.17;;;5.30;99.90;;;;;;6331948;22;20542;-81
2023/12/23 10:55:39;;;;;;;789.90;730.03;;;5.30;99.90;;;;;;6332072;22;20018;-82
2023/12/23 10:58:09;;;;;;;781.15;722.58;;;5.30;99.90;;;;;;6332809;22;20017;-82
2023/12/23 11:00:36;;;;;;;740.28;683.53;;;5.30;99.90;;;;;;6332023;22;20019;-81
2023/12/23 11:03:03;;;;;;;802.15;740.83;;;5.30;99.90;;;;;;6331154;22;20065;-81
2023/12/23 11:05:32;;;;;;;778.00;719.75;;;5.30;99.90;;;;;;6303415;22;20342;-80
2023/12/23 11:08:00;;;;;;;785.83;726.53;;;5.30;99.90;;;;;;6333094;22;20117;-81
2023/12/23 11:10:28;;;;;;;745.55;689.55;;;5.30;99.90;;;;;;6303153;22;20086;-81
2023/12/23 11:12:55;;;;;;;752.80;696.70;;;5.40;99.90;;;;;;6332832;22;20057;-81
2023/12/23 11:15:21;;;;;;;799.30;738.33;;;5.30;99.90;;;;;;6332183;22;20018;-79
2023/12/23 11:17:46;;;;;;;780.42;721.90;;;5.30;99.90;;;;;;6331914;22;20011;-79
2023/12/23 11:20:33;;;;;;;777.50;718.67;;;5.50;99.90;;;;;;6330957;22;20335;-80
2023/12/23 11:23:00;;;;;;;764.80;707.45;;;5.40;99.90;;;;;;6332256;22;20563;-80
2023/12/23 11:25:42;;;;;;;790.97;730.95;;;5.40;99.90;;;;;;6302374;22;20063;-80
2023/12/23 11:28:10;;;;;;;760.03;703.65;;;5.40;99.90;;;;;;6332371;22;20015;-80
2023/12/23 11:30:47;;;;;;;741.25;686.15;;;5.40;99.90;;;;;;6330850;22;20018;-81
2023/12/23 11:33:13;;;;;;;742.65;686.95;;;5.40;99.90;;;;;;6331473;22;20021;-80
2023/12/23 11:35:46;;;;;;;749.45;693.67;;;5.50;99.90;;;;;;6302897;22;20030;-80
2023/12/23 11:38:12;;;;;;;;;;;5.40;99.90;;;;;;6303682;22;20023;-80
2023/12/23 11:40:38;;;;;;;731.63;677.47;;;5.40;99.90;;;;;;6331986;22;19921;-79
2023/12/23 11:43:04;;;;;;;761.35;704.67;;;5.50;99.90;;;;;;6304341;22;20023;-80
2023/12/23 11:45:30;;;;;;;748.20;692.83;;;5.50;99.90;;;;;;6302868;22;20011;-79
2023/12/23 11:47:57;;;;;;;747.08;691.95;;;5.50;99.90;;;;;;6332323;22;20019;-79
2023/12/23 11:50:23;;;;;;;788.17;728.83;;;5.50;99.90;;;;;;6330811;22;20011;-80
2023/12/23 11:52:49;;;;;;;745.72;689.63;;;5.60;99.90;;;;;;6303195;22;20041;-80
2023/12/23 11:55:16;;;;;;;750.88;693.85;;;5.60;99.90;;;;;;6331245;22;20443;-80
2023/12/23 11:57:42;;;;;;;805.42;743.22;;;5.60;99.90;;;;;;6331763;22;20011;-80
2023/12/23 12:00:09;;;;;;;776.92;717.95;;;5.60;99.90;;;;;;6302902;22;20015;-80
2023/12/23 12:02:34;;;;;;;768.53;710.47;;;5.70;99.90;;;;;;6330903;22;20015;-79
2023/12/23 12:05:01;;;;;;;737.40;682.75;;;5.70;99.90;;;;;;6331211;22;20049;-79
2023/12/23 12:07:28;;;;;;;764.53;707.70;;;5.70;99.90;;;;;;6329725;22;20022;-80
2023/12/23 12:09:54;;;;;;;728.67;674.88;;;5.70;99.90;;;;;;6304148;22;20470;-80
2023/12/23 12:12:20;;;;;;;707.67;655.65;;;5.70;99.90;;;;;;6331192;22;20466;-80
2023/12/23 12:14:46;;;;;;;713.97;661.45;;;5.70;99.90;;;;;;6302492;22;20034;-80